sensor_id;sensor_type;location;lat;lon;timestamp;pressure;altitude;pressure_sealevel;temperature;humidity
27984;BME280;15317;50.360;8.726;2022-08-01T00:02:39;99421.19;;;21.19;78.96
27984;BME280;15317;50.360;8.726;2022-08-01T00:06:41;99424.44;;;21.09;79.81
27984;BME280;15317;50.360;8.726;2022-08-01T00:10:43;99428.59;;;21.00;80.15
27984;BME280;15317;50.360;8.726;2022-08-01T00:14:45;99423.16;;;20.94;80.14
27984;BME280;15317;50.360;8.726;2022-08-01T00:18:49;99427.91;;;20.86;81.13
27984;BME280;15317;50.360;8.726;2022-08-01T00:22:51;99423.28;;;20.80;81.81
27984;BME280;15317;50.360;8.726;2022-08-01T00:26:53;99435.47;;;20.73;82.30
27984;BME280;15317;50.360;8.726;2022-08-01T00:30:55;99428.16;;;20.60;84.11
27984;BME280;15317;50.360;8.726;2022-08-01T00:34:59;99426.53;;;20.53;84.20
27984;BME280;15317;50.360;8.726;2022-08-01T00:39:01;99425.72;;;20.45;85.10
27984;BME280;15317;50.360;8.726;2022-08-01T00:43:03;99425.28;;;20.48;84.85
27984;BME280;15317;50.360;8.726;2022-08-01T00:47:06;99424.09;;;20.38;86.70
27984;BME280;15317;50.360;8.726;2022-08-01T00:51:10;99420.28;;;20.39;86.00
27984;BME280;15317;50.360;8.726;2022-08-01T00:55:12;99419.88;;;20.35;86.60
27984;BME280;15317;50.360;8.726;2022-08-01T00:59:17;99410.53;;;20.30;87.27
27984;BME280;15317;50.360;8.726;2022-08-01T01:03:19;99411.44;;;20.24;87.75
27984;BME280;15317;50.360;8.726;2022-08-01T01:07:29;99407.47;;;20.20;87.82
27984;BME280;15317;50.360;8.726;2022-08-01T01:11:39;99408.38;;;20.07;89.93
27984;BME280;15317;50.360;8.726;2022-08-01T01:15:48;99404.78;;;20.06;89.75
27984;BME280;15317;50.360;8.726;2022-08-01T01:19:54;99407.09;;;20.09;90.09
27984;BME280;15317;50.360;8.726;2022-08-01T01:24:04;99413.03;;;20.06;91.29
27984;BME280;15317;50.360;8.726;2022-08-01T01:28:17;99417.50;;;20.07;90.76
27984;BME280;15317;50.360;8.726;2022-08-01T01:32:28;99426.81;;;20.06;91.02
27984;BME280;15317;50.360;8.726;2022-08-01T01:36:35;99420.50;;;19.99;91.28
27984;BME280;15317;50.360;8.726;2022-08-01T01:40:37;99435.34;;;20.05;91.24
27984;BME280;15317;50.360;8.726;2022-08-01T01:44:40;99431.38;;;19.94;92.33
27984;BME280;15317;50.360;8.726;2022-08-01T01:48:46;99437.06;;;19.99;92.20
27984;BME280;15317;50.360;8.726;2022-08-01T01:52:50;99436.50;;;19.91;93.78
27984;BME280;15317;50.360;8.726;2022-08-01T01:56:53;99421.88;;;19.90;94.05
27984;BME280;15317;50.360;8.726;2022-08-01T02:00:58;99430.34;;;19.89;93.21
27984;BME280;15317;50.360;8.726;2022-08-01T02:05:04;99417.66;;;19.81;94.14
27984;BME280;15317;50.360;8.726;2022-08-01T02:09:07;99418.13;;;19.78;94.61
27984;BME280;15317;50.360;8.726;2022-08-01T02:13:10;99417.72;;;19.75;95.04
27984;BME280;15317;50.360;8.726;2022-08-01T02:17:15;99419.00;;;19.72;95.61
27984;BME280;15317;50.360;8.726;2022-08-01T02:21:25;99426.66;;;19.70;94.83
27984;BME280;15317;50.360;8.726;2022-08-01T02:25:31;99419.88;;;19.66;95.03
27984;BME280;15317;50.360;8.726;2022-08-01T02:29:39;99425.19;;;19.61;95.54
27984;BME280;15317;50.360;8.726;2022-08-01T02:33:44;99421.56;;;19.67;95.38
27984;BME280;15317;50.360;8.726;2022-08-01T02:37:49;99433.97;;;19.51;96.21
27984;BME280;15317;50.360;8.726;2022-08-01T02:41:57;99437.78;;;19.44;97.03
27984;BME280;15317;50.360;8.726;2022-08-01T02:46:02;99438.66;;;19.38;97.90
27984;BME280;15317;50.360;8.726;2022-08-01T02:50:07;99445.41;;;19.35;99.03
27984;BME280;15317;50.360;8.726;2022-08-01T02:54:15;99446.69;;;19.32;98.98
27984;BME280;15317;50.360;8.726;2022-08-01T02:58:20;99446.47;;;19.34;99.34
27984;BME280;15317;50.360;8.726;2022-08-01T03:02:25;99444.38;;;19.36;99.63
27984;BME280;15317;50.360;8.726;2022-08-01T03:06:28;99444.53;;;19.41;99.16
27984;BME280;15317;50.360;8.726;2022-08-01T03:10:33;99446.88;;;19.44;98.65
27984;BME280;15317;50.360;8.726;2022-08-01T03:14:39;99441.13;;;19.46;99.29
27984;BME280;15317;50.360;8.726;2022-08-01T03:18:43;99443.28;;;19.50;98.66
27984;BME280;15317;50.360;8.726;2022-08-01T03:22:48;99444.13;;;19.51;98.39
27984;BME280;15317;50.360;8.726;2022-08-01T03:26:56;99440.94;;;19.47;98.24
27984;BME280;15317;50.360;8.726;2022-08-01T03:30:58;99444.75;;;19.40;98.31
27984;BME280;15317;50.360;8.726;2022-08-01T03:35:01;99443.31;;;19.30;98.31
27984;BME280;15317;50.360;8.726;2022-08-01T03:39:05;99446.53;;;19.21;99.75
27984;BME280;15317;50.360;8.726;2022-08-01T03:43:16;99449.31;;;19.14;99.71
27984;BME280;15317;50.360;8.726;2022-08-01T03:47:21;99440.63;;;19.04;100.00
27984;BME280;15317;50.360;8.726;2022-08-01T03:51:25;99444.91;;;18.93;100.00
27984;BME280;15317;50.360;8.726;2022-08-01T03:55:27;99446.19;;;18.84;100.00
27984;BME280;15317;50.360;8.726;2022-08-01T03:59:32;99448.09;;;18.77;100.00
27984;BME280;15317;50.360;8.726;2022-08-01T04:03:37;99450.44;;;18.80;100.00
27984;BME280;15317;50.360;8.726;2022-08-01T04:07:39;99450.22;;;18.82;100.00
27984;BME280;15317;50.360;8.726;2022-08-01T04:11:43;99456.13;;;18.85;100.00
27984;BME280;15317;50.360;8.726;2022-08-01T04:15:47;99458.03;;;18.85;100.00
27984;BME280;15317;50.360;8.726;2022-08-01T04:19:49;99462.06;;;18.89;100.00
27984;BME280;15317;50.360;8.726;2022-08-01T04:23:52;99462.47;;;18.99;100.00
27984;BME280;15317;50.360;8.726;2022-08-01T04:27:57;99472.19;;;19.08;100.00
27984;BME280;15317;50.360;8.726;2022-08-01T04:32:02;99471.28;;;19.27;100.00
27984;BME280;15317;50.360;8.726;2022-08-01T04:36:06;99481.88;;;19.37;100.00
27984;BME280;15317;50.360;8.726;2022-08-01T04:40:11;99476.94;;;19.46;100.00
27984;BME280;15317;50.360;8.726;2022-08-01T04:44:13;99476.72;;;19.54;100.00
27984;BME280;15317;50.360;8.726;2022-08-01T04:48:18;99486.47;;;19.63;99.79
27984;BME280;15317;50.360;8.726;2022-08-01T04:52:21;99480.50;;;19.66;99.73
27984;BME280;15317;50.360;8.726;2022-08-01T04:56:23;99474.56;;;19.69;98.95
27984;BME280;15317;50.360;8.726;2022-08-01T05:00:25;99485.13;;;19.72;97.93
27984;BME280;15317;50.360;8.726;2022-08-01T05:04:30;99484.28;;;19.78;97.63
27984;BME280;15317;50.360;8.726;2022-08-01T05:08:32;99496.97;;;19.79;97.92
27984;BME280;15317;50.360;8.726;2022-08-01T05:12:35;99489.75;;;19.85;97.26
27984;BME280;15317;50.360;8.726;2022-08-01T05:16:37;99489.25;;;19.94;96.92
27984;BME280;15317;50.360;8.726;2022-08-01T05:20:40;99502.38;;;20.05;96.24
27984;BME280;15317;50.360;8.726;2022-08-01T05:24:43;99509.94;;;20.17;95.49
27984;BME280;15317;50.360;8.726;2022-08-01T05:28:45;99512.44;;;20.25;94.93
27984;BME280;15317;50.360;8.726;2022-08-01T05:32:47;99518.75;;;20.32;94.67
27984;BME280;15317;50.360;8.726;2022-08-01T05:36:50;99517.25;;;20.36;94.45
27984;BME280;15317;50.360;8.726;2022-08-01T05:40:52;99518.53;;;20.40;93.71
27984;BME280;15317;50.360;8.726;2022-08-01T05:44:54;99522.50;;;20.44;93.84
27984;BME280;15317;50.360;8.726;2022-08-01T05:48:56;99523.38;;;20.44;93.32
27984;BME280;15317;50.360;8.726;2022-08-01T05:53:00;99540.03;;;20.56;93.18
27984;BME280;15317;50.360;8.726;2022-08-01T05:57:02;99534.63;;;20.74;92.53
27984;BME280;15317;50.360;8.726;2022-08-01T06:01:05;99533.25;;;20.83;91.41
27984;BME280;15317;50.360;8.726;2022-08-01T06:05:07;99533.59;;;20.94;91.46
27984;BME280;15317;50.360;8.726;2022-08-01T06:09:11;99542.03;;;20.99;91.03
27984;BME280;15317;50.360;8.726;2022-08-01T06:13:13;99534.97;;;21.03;90.86
27984;BME280;15317;50.360;8.726;2022-08-01T06:17:15;99540.59;;;21.21;90.64
27984;BME280;15317;50.360;8.726;2022-08-01T06:21:17;99547.84;;;21.40;88.22
27984;BME280;15317;50.360;8.726;2022-08-01T06:25:21;99551.19;;;21.24;89.39
27984;BME280;15317;50.360;8.726;2022-08-01T06:29:23;99553.41;;;21.09;90.35
27984;BME280;15317;50.360;8.726;2022-08-01T06:33:26;99555.94;;;21.10;90.72
27984;BME280;15317;50.360;8.726;2022-08-01T06:37:29;99555.50;;;21.13;91.73
27984;BME280;15317;50.360;8.726;2022-08-01T06:41:32;99547.00;;;21.15;92.51
27984;BME280;15317;50.360;8.726;2022-08-01T06:45:35;99547.19;;;21.20;91.82
27984;BME280;15317;50.360;8.726;2022-08-01T06:49:37;99549.47;;;21.23;91.19
27984;BME280;15317;50.360;8.726;2022-08-01T06:53:39;99554.94;;;21.29;90.69
27984;BME280;15317;50.360;8.726;2022-08-01T06:57:50;99561.19;;;21.43;89.56
27984;BME280;15317;50.360;8.726;2022-08-01T07:01:52;99564.25;;;21.35;88.95
27984;BME280;15317;50.360;8.726;2022-08-01T07:05:54;99560.25;;;21.31;88.25
27984;BME280;15317;50.360;8.726;2022-08-01T07:09:57;99561.66;;;21.40;87.41
27984;BME280;15317;50.360;8.726;2022-08-01T07:14:00;99556.00;;;21.53;87.78
27984;BME280;15317;50.360;8.726;2022-08-01T07:18:03;99549.31;;;21.61;90.33
27984;BME280;15317;50.360;8.726;2022-08-01T07:22:07;99553.84;;;21.74;87.73
27984;BME280;15317;50.360;8.726;2022-08-01T07:26:14;99547.41;;;21.61;86.96
27984;BME280;15317;50.360;8.726;2022-08-01T07:30:29;99554.91;;;21.73;87.51
27984;BME280;15317;50.360;8.726;2022-08-01T07:34:32;99553.78;;;21.62;88.65
27984;BME280;15317;50.360;8.726;2022-08-01T07:38:45;99549.75;;;21.58;88.86
27984;BME280;15317;50.360;8.726;2022-08-01T07:42:55;99548.63;;;21.65;89.25
27984;BME280;15317;50.360;8.726;2022-08-01T07:46:59;99556.53;;;21.80;87.96
27984;BME280;15317;50.360;8.726;2022-08-01T07:51:05;99550.91;;;21.87;86.44
27984;BME280;15317;50.360;8.726;2022-08-01T07:55:23;99556.81;;;21.97;85.07
27984;BME280;15317;50.360;8.726;2022-08-01T07:59:36;99541.06;;;22.27;84.35
27984;BME280;15317;50.360;8.726;2022-08-01T08:03:40;99553.50;;;22.36;82.54
27984;BME280;15317;50.360;8.726;2022-08-01T08:07:43;99554.16;;;22.62;81.87
27984;BME280;15317;50.360;8.726;2022-08-01T08:11:45;99553.84;;;22.70;78.15
27984;BME280;15317;50.360;8.726;2022-08-01T08:15:48;99555.75;;;22.99;77.83
27984;BME280;15317;50.360;8.726;2022-08-01T08:20:23;99567.44;;;23.13;76.19
27984;BME280;15317;50.360;8.726;2022-08-01T08:24:52;99571.66;;;23.39;75.75
27984;BME280;15317;50.360;8.726;2022-08-01T08:28:54;99566.44;;;23.07;74.31
27984;BME280;15317;50.360;8.726;2022-08-01T08:32:56;99577.81;;;23.17;73.72
27984;BME280;15317;50.360;8.726;2022-08-01T08:36:58;99566.94;;;23.04;73.63
27984;BME280;15317;50.360;8.726;2022-08-01T08:41:02;99572.16;;;23.12;74.02
27984;BME280;15317;50.360;8.726;2022-08-01T08:45:06;99565.41;;;23.43;72.37
27984;BME280;15317;50.360;8.726;2022-08-01T08:49:08;99566.59;;;23.36;71.88
27984;BME280;15317;50.360;8.726;2022-08-01T08:53:13;99569.97;;;23.84;71.33
27984;BME280;15317;50.360;8.726;2022-08-01T08:57:20;99577.09;;;24.32;70.00
27984;BME280;15317;50.360;8.726;2022-08-01T09:01:22;99573.16;;;24.56;66.35
27984;BME280;15317;50.360;8.726;2022-08-01T09:05:24;99579.63;;;25.07;64.11
27984;BME280;15317;50.360;8.726;2022-08-01T09:09:27;99574.25;;;25.34;63.73
27984;BME280;15317;50.360;8.726;2022-08-01T09:13:30;99576.44;;;25.65;61.82
27984;BME280;15317;50.360;8.726;2022-08-01T09:17:39;99570.81;;;25.82;60.05
27984;BME280;15317;50.360;8.726;2022-08-01T09:21:57;99574.81;;;25.86;58.45
27984;BME280;15317;50.360;8.726;2022-08-01T09:26:00;99569.69;;;25.61;59.08
27984;BME280;15317;50.360;8.726;2022-08-01T09:30:11;99568.72;;;25.17;60.22
27984;BME280;15317;50.360;8.726;2022-08-01T09:34:14;99583.69;;;25.16;61.17
27984;BME280;15317;50.360;8.726;2022-08-01T09:38:17;99568.94;;;25.87;57.64
27984;BME280;15317;50.360;8.726;2022-08-01T09:42:21;99565.88;;;26.06;56.20
27984;BME280;15317;50.360;8.726;2022-08-01T09:46:24;99559.84;;;26.35;56.19
27984;BME280;15317;50.360;8.726;2022-08-01T09:50:38;99559.63;;;26.20;54.98
27984;BME280;15317;50.360;8.726;2022-08-01T09:54:41;99555.97;;;25.93;55.90
27984;BME280;15317;50.360;8.726;2022-08-01T09:58:51;99552.66;;;25.96;56.36
27984;BME280;15317;50.360;8.726;2022-08-01T10:02:55;99567.66;;;25.95;56.10
27984;BME280;15317;50.360;8.726;2022-08-01T10:07:04;99554.19;;;25.87;56.56
27984;BME280;15317;50.360;8.726;2022-08-01T10:11:07;99556.41;;;25.85;56.64
27984;BME280;15317;50.360;8.726;2022-08-01T10:15:10;99563.84;;;26.01;55.33
27984;BME280;15317;50.360;8.726;2022-08-01T10:19:14;99554.75;;;26.06;53.91
27984;BME280;15317;50.360;8.726;2022-08-01T10:23:16;99560.63;;;26.09;54.52
27984;BME280;15317;50.360;8.726;2022-08-01T10:27:19;99556.59;;;26.00;54.38
27984;BME280;15317;50.360;8.726;2022-08-01T10:31:21;99554.84;;;25.55;54.46
27984;BME280;15317;50.360;8.726;2022-08-01T10:35:25;99549.38;;;25.61;55.12
27984;BME280;15317;50.360;8.726;2022-08-01T10:39:28;99548.88;;;25.64;54.97
27984;BME280;15317;50.360;8.726;2022-08-01T10:43:31;99547.03;;;25.91;54.39
27984;BME280;15317;50.360;8.726;2022-08-01T10:47:38;99539.38;;;26.03;51.80
27984;BME280;15317;50.360;8.726;2022-08-01T10:51:43;99544.31;;;26.18;52.11
27984;BME280;15317;50.360;8.726;2022-08-01T10:55:51;99544.53;;;26.33;51.60
27984;BME280;15317;50.360;8.726;2022-08-01T10:59:54;99539.84;;;26.39;52.47
27984;BME280;15317;50.360;8.726;2022-08-01T11:04:02;99534.78;;;26.62;54.12
27984;BME280;15317;50.360;8.726;2022-08-01T11:08:10;99532.84;;;26.90;50.48
27984;BME280;15317;50.360;8.726;2022-08-01T11:12:15;99536.66;;;27.10;49.20
27984;BME280;15317;50.360;8.726;2022-08-01T11:16:27;99546.31;;;26.98;46.69
27984;BME280;15317;50.360;8.726;2022-08-01T11:20:32;99528.53;;;26.77;47.63
27984;BME280;15317;50.360;8.726;2022-08-01T11:24:57;99528.03;;;26.53;49.05
27984;BME280;15317;50.360;8.726;2022-08-01T11:29:17;99516.97;;;26.37;49.14
27984;BME280;15317;50.360;8.726;2022-08-01T11:33:50;99512.47;;;26.30;50.35
27984;BME280;15317;50.360;8.726;2022-08-01T11:37:53;99519.75;;;26.37;50.19
27984;BME280;15317;50.360;8.726;2022-08-01T11:42:17;99517.59;;;26.44;50.38
27984;BME280;15317;50.360;8.726;2022-08-01T11:46:20;99514.19;;;26.90;51.06
27984;BME280;15317;50.360;8.726;2022-08-01T11:50:42;99503.78;;;27.12;51.22
27984;BME280;15317;50.360;8.726;2022-08-01T11:54:46;99497.34;;;27.49;49.40
27984;BME280;15317;50.360;8.726;2022-08-01T11:58:58;99501.47;;;27.88;46.75
27984;BME280;15317;50.360;8.726;2022-08-01T12:03:03;99499.78;;;27.87;45.34
27984;BME280;15317;50.360;8.726;2022-08-01T12:07:11;99506.16;;;27.78;45.22
27984;BME280;15317;50.360;8.726;2022-08-01T12:11:13;99502.91;;;27.49;45.22
27984;BME280;15317;50.360;8.726;2022-08-01T12:15:18;99506.72;;;27.33;46.16
27984;BME280;15317;50.360;8.726;2022-08-01T12:19:21;99503.88;;;27.28;47.65
27984;BME280;15317;50.360;8.726;2022-08-01T12:23:23;99505.84;;;27.27;48.66
27984;BME280;15317;50.360;8.726;2022-08-01T12:27:27;99493.88;;;27.37;48.99
27984;BME280;15317;50.360;8.726;2022-08-01T12:31:34;99492.09;;;27.58;47.75
27984;BME280;15317;50.360;8.726;2022-08-01T12:35:37;99491.25;;;27.57;47.07
27984;BME280;15317;50.360;8.726;2022-08-01T12:39:40;99498.41;;;27.90;47.83
27984;BME280;15317;50.360;8.726;2022-08-01T12:43:42;99499.38;;;28.16;44.50
27984;BME280;15317;50.360;8.726;2022-08-01T12:47:46;99497.47;;;28.47;43.67
27984;BME280;15317;50.360;8.726;2022-08-01T12:51:48;99505.34;;;28.65;43.54
27984;BME280;15317;50.360;8.726;2022-08-01T12:55:52;99508.34;;;28.23;42.56
27984;BME280;15317;50.360;8.726;2022-08-01T13:00:08;99504.44;;;28.34;42.03
27984;BME280;15317;50.360;8.726;2022-08-01T13:04:12;99498.25;;;28.17;43.15
27984;BME280;15317;50.360;8.726;2022-08-01T13:08:16;99498.59;;;28.46;43.33
27984;BME280;15317;50.360;8.726;2022-08-01T13:12:18;99502.31;;;28.82;41.65
27984;BME280;15317;50.360;8.726;2022-08-01T13:16:22;99515.72;;;28.95;42.13
27984;BME280;15317;50.360;8.726;2022-08-01T13:20:29;99501.22;;;28.93;42.74
27984;BME280;15317;50.360;8.726;2022-08-01T13:24:31;99497.00;;;28.95;42.54
27984;BME280;15317;50.360;8.726;2022-08-01T13:28:34;99497.28;;;28.79;42.74
27984;BME280;15317;50.360;8.726;2022-08-01T13:32:37;99492.50;;;28.69;43.77
27984;BME280;15317;50.360;8.726;2022-08-01T13:36:41;99487.72;;;28.44;44.70
27984;BME280;15317;50.360;8.726;2022-08-01T13:40:43;99498.84;;;28.34;44.50
27984;BME280;15317;50.360;8.726;2022-08-01T13:44:45;99488.28;;;28.61;44.60
27984;BME280;15317;50.360;8.726;2022-08-01T13:48:47;99491.06;;;28.66;43.98
27984;BME280;15317;50.360;8.726;2022-08-01T13:52:50;99484.66;;;28.51;44.08
27984;BME280;15317;50.360;8.726;2022-08-01T13:56:52;99484.94;;;28.64;44.01
27984;BME280;15317;50.360;8.726;2022-08-01T14:00:55;99488.00;;;28.73;43.11
27984;BME280;15317;50.360;8.726;2022-08-01T14:04:57;99491.66;;;28.63;42.61
27984;BME280;15317;50.360;8.726;2022-08-01T14:09:00;99491.09;;;28.56;42.07
27984;BME280;15317;50.360;8.726;2022-08-01T14:13:02;99495.25;;;28.49;41.91
27984;BME280;15317;50.360;8.726;2022-08-01T14:17:04;99486.53;;;28.20;43.36
27984;BME280;15317;50.360;8.726;2022-08-01T14:21:06;99489.09;;;28.42;43.53
27984;BME280;15317;50.360;8.726;2022-08-01T14:25:10;99490.47;;;28.29;43.53
27984;BME280;15317;50.360;8.726;2022-08-01T14:29:12;99484.78;;;28.09;44.42
27984;BME280;15317;50.360;8.726;2022-08-01T14:33:14;99488.94;;;27.96;45.49
27984;BME280;15317;50.360;8.726;2022-08-01T14:37:16;99489.72;;;27.81;44.78
27984;BME280;15317;50.360;8.726;2022-08-01T14:41:19;99493.03;;;27.73;44.84
27984;BME280;15317;50.360;8.726;2022-08-01T14:45:21;99488.56;;;27.77;44.33
27984;BME280;15317;50.360;8.726;2022-08-01T14:49:23;99482.00;;;28.04;43.65
27984;BME280;15317;50.360;8.726;2022-08-01T14:53:25;99484.00;;;28.18;43.49
27984;BME280;15317;50.360;8.726;2022-08-01T14:57:28;99486.56;;;28.25;43.42
27984;BME280;15317;50.360;8.726;2022-08-01T15:01:31;99484.88;;;28.39;42.33
27984;BME280;15317;50.360;8.726;2022-08-01T15:05:33;99480.41;;;28.28;42.62
27984;BME280;15317;50.360;8.726;2022-08-01T15:09:36;99494.72;;;28.52;42.95
27984;BME280;15317;50.360;8.726;2022-08-01T15:13:40;99486.06;;;28.63;43.73
27984;BME280;15317;50.360;8.726;2022-08-01T15:17:42;99483.81;;;28.55;42.83
27984;BME280;15317;50.360;8.726;2022-08-01T15:21:44;99484.06;;;28.44;43.47
27984;BME280;15317;50.360;8.726;2022-08-01T15:25:46;99489.53;;;28.13;42.98
27984;BME280;15317;50.360;8.726;2022-08-01T15:29:49;99489.88;;;28.17;42.57
27984;BME280;15317;50.360;8.726;2022-08-01T15:33:52;99490.38;;;28.14;43.41
27984;BME280;15317;50.360;8.726;2022-08-01T15:37:54;99488.78;;;28.18;43.10
27984;BME280;15317;50.360;8.726;2022-08-01T15:41:58;99494.94;;;28.30;42.22
27984;BME280;15317;50.360;8.726;2022-08-01T15:46:03;99487.16;;;28.42;42.31
27984;BME280;15317;50.360;8.726;2022-08-01T15:50:06;99482.94;;;28.24;41.79
27984;BME280;15317;50.360;8.726;2022-08-01T15:54:09;99489.81;;;28.12;42.45
27984;BME280;15317;50.360;8.726;2022-08-01T15:58:11;99481.06;;;27.83;43.88
27984;BME280;15317;50.360;8.726;2022-08-01T16:02:15;99490.91;;;27.48;44.30
27984;BME280;15317;50.360;8.726;2022-08-01T16:06:17;99489.34;;;27.21;44.34
27984;BME280;15317;50.360;8.726;2022-08-01T16:10:19;99483.22;;;27.24;44.57
27984;BME280;15317;50.360;8.726;2022-08-01T16:14:21;99489.69;;;27.29;44.57
27984;BME280;15317;50.360;8.726;2022-08-01T16:18:24;99485.25;;;27.33;44.05
27984;BME280;15317;50.360;8.726;2022-08-01T16:22:26;99492.63;;;27.12;45.23
27984;BME280;15317;50.360;8.726;2022-08-01T16:26:28;99490.41;;;27.15;45.94
27984;BME280;15317;50.360;8.726;2022-08-01T16:30:30;99495.44;;;27.18;46.18
27984;BME280;15317;50.360;8.726;2022-08-01T16:34:34;99491.56;;;27.19;46.77
27984;BME280;15317;50.360;8.726;2022-08-01T16:38:36;99497.16;;;27.24;47.47
27984;BME280;15317;50.360;8.726;2022-08-01T16:42:38;99491.88;;;27.22;46.96
27984;BME280;15317;50.360;8.726;2022-08-01T16:46:40;99496.59;;;27.22;48.03
27984;BME280;15317;50.360;8.726;2022-08-01T16:50:44;99492.72;;;27.23;46.77
27984;BME280;15317;50.360;8.726;2022-08-01T16:54:48;99497.34;;;27.12;47.81
27984;BME280;15317;50.360;8.726;2022-08-01T16:58:51;99492.22;;;26.94;47.71
27984;BME280;15317;50.360;8.726;2022-08-01T17:02:53;99494.91;;;26.89;47.41
27984;BME280;15317;50.360;8.726;2022-08-01T17:06:56;99501.72;;;26.71;48.46
27984;BME280;15317;50.360;8.726;2022-08-01T17:10:58;99502.16;;;26.58;47.91
27984;BME280;15317;50.360;8.726;2022-08-01T17:15:00;99492.06;;;26.52;47.74
27984;BME280;15317;50.360;8.726;2022-08-01T17:19:03;99497.53;;;26.42;47.49
27984;BME280;15317;50.360;8.726;2022-08-01T17:23:07;99495.75;;;26.30;48.11
27984;BME280;15317;50.360;8.726;2022-08-01T17:27:09;99501.06;;;26.10;48.60
27984;BME280;15317;50.360;8.726;2022-08-01T17:31:11;99492.00;;;25.98;49.21
27984;BME280;15317;50.360;8.726;2022-08-01T17:35:13;99491.88;;;25.88;49.54
27984;BME280;15317;50.360;8.726;2022-08-01T17:39:17;99487.88;;;25.79;50.34
27984;BME280;15317;50.360;8.726;2022-08-01T17:43:19;99490.53;;;25.69;50.85
27984;BME280;15317;50.360;8.726;2022-08-01T17:47:21;99495.44;;;25.62;51.26
27984;BME280;15317;50.360;8.726;2022-08-01T17:51:23;99491.31;;;25.47;50.98
27984;BME280;15317;50.360;8.726;2022-08-01T17:55:26;99501.22;;;25.38;51.04
27984;BME280;15317;50.360;8.726;2022-08-01T17:59:28;99501.63;;;25.30;51.23
27984;BME280;15317;50.360;8.726;2022-08-01T18:03:30;99506.53;;;25.23;51.86
27984;BME280;15317;50.360;8.726;2022-08-01T18:07:32;99506.38;;;25.13;52.13
27984;BME280;15317;50.360;8.726;2022-08-01T18:11:36;99510.22;;;25.12;52.25
27984;BME280;15317;50.360;8.726;2022-08-01T18:15:38;99515.06;;;25.00;52.82
27984;BME280;15317;50.360;8.726;2022-08-01T18:19:40;99519.69;;;24.94;52.63
27984;BME280;15317;50.360;8.726;2022-08-01T18:23:42;99512.13;;;24.90;53.13
27984;BME280;15317;50.360;8.726;2022-08-01T18:27:45;99520.16;;;24.74;53.77
27984;BME280;15317;50.360;8.726;2022-08-01T18:31:47;99530.06;;;24.70;54.10
27984;BME280;15317;50.360;8.726;2022-08-01T18:35:51;99529.41;;;24.63;54.08
27984;BME280;15317;50.360;8.726;2022-08-01T18:39:53;99538.53;;;24.47;54.57
27984;BME280;15317;50.360;8.726;2022-08-01T18:43:56;99540.00;;;24.50;54.63
27984;BME280;15317;50.360;8.726;2022-08-01T18:47:58;99548.44;;;24.43;54.27
27984;BME280;15317;50.360;8.726;2022-08-01T18:52:00;99553.41;;;24.41;54.28
27984;BME280;15317;50.360;8.726;2022-08-01T18:56:02;99558.75;;;24.31;55.08
27984;BME280;15317;50.360;8.726;2022-08-01T19:00:14;99564.06;;;24.32;54.59
27984;BME280;15317;50.360;8.726;2022-08-01T19:04:16;99563.03;;;24.22;55.54
27984;BME280;15317;50.360;8.726;2022-08-01T19:08:18;99571.38;;;24.22;55.01
27984;BME280;15317;50.360;8.726;2022-08-01T19:12:20;99571.38;;;24.22;55.24
27984;BME280;15317;50.360;8.726;2022-08-01T19:16:23;99579.44;;;24.12;56.24
27984;BME280;15317;50.360;8.726;2022-08-01T19:20:26;99577.75;;;24.11;55.82
27984;BME280;15317;50.360;8.726;2022-08-01T19:24:28;99585.88;;;24.00;55.60
27984;BME280;15317;50.360;8.726;2022-08-01T19:28:38;99590.34;;;23.90;56.62
27984;BME280;15317;50.360;8.726;2022-08-01T19:32:46;99588.63;;;24.00;58.71
27984;BME280;15317;50.360;8.726;2022-08-01T19:36:50;99596.81;;;23.95;59.71
27984;BME280;15317;50.360;8.726;2022-08-01T19:40:53;99603.84;;;23.75;61.40
27984;BME280;15317;50.360;8.726;2022-08-01T19:44:55;99610.63;;;23.67;63.44
27984;BME280;15317;50.360;8.726;2022-08-01T19:49:00;99616.13;;;23.44;64.23
27984;BME280;15317;50.360;8.726;2022-08-01T19:53:02;99616.59;;;23.29;65.12
27984;BME280;15317;50.360;8.726;2022-08-01T19:57:06;99636.00;;;23.17;65.97
27984;BME280;15317;50.360;8.726;2022-08-01T20:01:10;99634.50;;;23.03;66.82
27984;BME280;15317;50.360;8.726;2022-08-01T20:05:15;99641.09;;;22.91;67.46
27984;BME280;15317;50.360;8.726;2022-08-01T20:09:17;99644.66;;;22.79;68.13
27984;BME280;15317;50.360;8.726;2022-08-01T20:13:19;99651.81;;;22.69;69.03
27984;BME280;15317;50.360;8.726;2022-08-01T20:17:22;99657.78;;;22.54;69.32
27984;BME280;15317;50.360;8.726;2022-08-01T20:21:26;99652.91;;;22.38;70.02
27984;BME280;15317;50.360;8.726;2022-08-01T20:25:29;99662.19;;;22.25;71.21
27984;BME280;15317;50.360;8.726;2022-08-01T20:29:32;99657.25;;;22.27;70.67
27984;BME280;15317;50.360;8.726;2022-08-01T20:33:39;99665.59;;;22.09;71.86
27984;BME280;15317;50.360;8.726;2022-08-01T20:37:43;99657.72;;;22.06;71.76
27984;BME280;15317;50.360;8.726;2022-08-01T20:41:48;99665.50;;;21.91;72.14
27984;BME280;15317;50.360;8.726;2022-08-01T20:45:51;99663.06;;;21.83;72.54
27984;BME280;15317;50.360;8.726;2022-08-01T20:49:56;99666.75;;;21.77;72.85
27984;BME280;15317;50.360;8.726;2022-08-01T20:54:20;99657.34;;;21.59;73.87
27984;BME280;15317;50.360;8.726;2022-08-01T20:58:26;99667.75;;;21.57;73.99
27984;BME280;15317;50.360;8.726;2022-08-01T21:02:40;99673.88;;;21.41;74.93
27984;BME280;15317;50.360;8.726;2022-08-01T21:06:53;99675.22;;;21.32;75.62
27984;BME280;15317;50.360;8.726;2022-08-01T21:10:57;99675.09;;;21.20;76.31
27984;BME280;15317;50.360;8.726;2022-08-01T21:15:02;99675.56;;;21.11;77.03
27984;BME280;15317;50.360;8.726;2022-08-01T21:19:10;99673.34;;;20.95;78.03
27984;BME280;15317;50.360;8.726;2022-08-01T21:23:19;99679.31;;;20.92;78.27
27984;BME280;15317;50.360;8.726;2022-08-01T21:27:25;99680.63;;;20.82;78.89
27984;BME280;15317;50.360;8.726;2022-08-01T21:31:31;99691.53;;;20.71;79.57
27984;BME280;15317;50.360;8.726;2022-08-01T21:35:35;99697.72;;;20.66;80.38